Station info - map view · info · telemetry · weather · raw · status · beacons · messages · bulletins · browse · moving · my account
Callsign, ship name or locator: Clear       
It is possible to search using wildcards (*?) after a prefix. Example: OH*
APRS station KN6BGN-7 - show graphs
Map loading...
Comment: 146.460MHzinService
Mic-E message: In service
Location: 37°05.48' N 122°05.19' W - locator CM87WC91OW - show map - static map
1.5 miles Southeast bearing 134° from Brookdale, Santa Cruz County, California, United States [?]
3.1 miles Southeast bearing 141° from Boulder Creek, Santa Cruz County, California, United States
20.1 miles Southwest bearing 212° from San Jose, Santa Clara County, California, United States
50.6 miles South bearing 159° from San Francisco, San Francisco County, California, United States
Last position: 2020-12-31 20:38:20 CST (15d 9h39m ago)
2020-12-31 18:38:20 PST local time at Brookdale, United States [?]
Altitude: 344 ft
Course: 265°
Speed: 0 MPH
Device: Kenwood: TH-D74 (ht)
Last path: KN6BGN-7>S7PUTX via qAR,K6XTC-1
Positions stored: 2546
Other SSIDs: KN6BGN-8
Stations near current position of KN6BGN-7 - show more
callsign distance last heard - CST      callsign distance last heard - CST
KN6BGN-820.7 yards 0°2021-01-13 20:39:39 KN6BGN-527.6 yards 346°2020-12-30 22:44:01
K6NFG B1.8 miles 307°2021-01-16 06:10:54 K6NFG-B1.8 miles 307°2021-01-16 06:10:54
EW15761.9 miles 330°2021-01-16 06:16:14 K6XTC-11.9 miles 56°2021-01-16 06:07:36
CW70522.1 miles 315°2021-01-16 06:12:45 CW73952.7 miles 316°2021-01-16 06:16:13
CW52722.9 miles 94°2021-01-16 06:13:24 N6RJX2.9 miles 166°2021-01-16 06:12:08
N6RJX-73.0 miles 161°2021-01-15 19:05:58 N6RJX-103.0 miles 161°2021-01-13 16:11:10
KG6ZJM-103.1 miles 329°2021-01-10 01:58:24 FW42253.1 miles 120°2021-01-16 06:14:43
KN6MPC-93.2 miles 225°2020-12-26 21:35:56 AC6SL-93.4 miles 326°2021-01-15 16:12:12
FW87013.4 miles 171°2021-01-16 06:15:09 EW29463.6 miles 171°2021-01-16 06:16:15
W6/NC-3733.6 miles 83°2021-01-15 14:24:09 DW31503.6 miles 129°2021-01-16 06:15:03
Stations which heard KN6BGN-7 directly on radio –
callsign pkts first heard - CST last heard longest (tx => rx) longest at - CST
WR6ABD 5 2020-12-31 19:43:43 2020-12-31 20:14:03 CM97BK > CM97BC 23.8 miles 173° 2020-12-31 19:43:43
W6CX-3 9 2020-12-31 18:27:41 2020-12-31 19:22:27 CM98IB > CM97BV 36.8 miles 251° 2020-12-31 18:27:41
K6FGA-1 1 2020-12-31 18:21:36 2020-12-31 18:21:36 CM98ID > CM99MF 77.2 miles 12° 2020-12-31 18:21:36
WA6ODP-3 2 2020-12-31 19:10:18 2020-12-31 19:14:21 CM97DR > CM97AP 13.9 miles 254° 2020-12-31 19:10:18
W6YX-5 8 2020-12-31 19:26:29 2020-12-31 19:49:46 CM97CO > CM87WJ 24.3 miles 233° 2020-12-31 19:26:29
WA6ODP-4 15 2020-12-31 18:50:02 2020-12-31 19:25:28 CM97IS > CM97CT 26.9 miles 274° 2020-12-31 18:50:02
WA6TOW-2 1 2020-12-31 19:37:37 2020-12-31 19:37:37 CM97AM > CM87SN 29.7 miles 274° 2020-12-31 19:37:37
K7FED-1 12 2020-12-31 18:27:45 2020-12-31 19:02:22 CM98IB > CM97FP 32.3 miles 208° 2020-12-31 18:27:45
K6BJ-3 2 2020-12-31 20:19:06 2020-12-31 20:25:11 CM97AC > CM96AX 6.3 miles 189° 2020-12-31 20:19:06
W6IA 2 2020-12-31 19:54:49 2020-12-31 20:01:54 CM97BH > CM97BG 3.5 miles 196° 2020-12-31 19:54:49
KQ6DI-4 10 2020-12-31 18:06:23 2020-12-31 18:19:32 CM98IE > CM98IG 6.9 miles 334° 2020-12-31 18:19:32
W6SRR-3 22 2020-12-31 18:30:42 2020-12-31 20:02:55 CM98IA > CM97AO 45.5 miles 233° 2020-12-31 18:30:42
KI6ZHD-6 1 2020-12-31 19:35:35 2020-12-31 19:35:35 CM97AN > CM97AI 15.2 miles 197° 2020-12-31 19:35:35
N6JWT-8 4 2020-12-31 18:35:53 2020-12-31 18:54:06 CM97HS > CM98TA 58.0 miles 72° 2020-12-31 18:54:06
WA6ODP-2 1 2020-12-31 18:38:54 2020-12-31 18:38:54 CM97IW > CM97FN 30.7 miles 208° 2020-12-31 18:38:54
W6PW-10 1 2020-12-31 19:36:36 2020-12-31 19:36:36 CM97AM > CM87SS 32.5 miles 297° 2020-12-31 19:36:36
N6RJX 3 2020-12-31 20:30:14 2020-12-31 20:32:15 CM87XB > CM87XB 1.0 miles 158° 2020-12-31 20:32:15
K6XTC-1 3 2020-12-31 20:24:10 2020-12-31 20:38:20 CM87XA > CM87XC 5.1 miles 338° 2020-12-31 20:24:10
N6ACK-10 3 2020-12-31 19:42:42 2020-12-31 20:06:57 CM97BL > CM97AH 9.9 miles 198° 2020-12-31 19:42:42
WB6JHI-1 1 2020-12-31 20:03:55 2020-12-31 20:03:55 CM97AF > CM97AF 0.7 miles 342° 2020-12-31 20:03:55
KB6VN-1 7 2020-12-31 19:40:38 2020-12-31 20:09:59 CM97AL > CM97AG 16.4 miles 192° 2020-12-31 19:40:38

Only position packets which were originated by the station are shown here. The range statistics show some extra long hops, because some digipeaters do not correctly add themselves to the digipeater path. Please check the raw packets.
About this site
This page shows real-time information collected from the Automatic Position Reporting System Internet network (APRS-IS). APRS is used by amateur (ham) radio operators to transmit real-time position information, weather data, telemetry and messages over the radio. A vehicle equipped with a GPS receiver, a VHF transmitter or HF transceiver and a small computer device called a tracker transmits it's location, speed and course in a small data packet, which is then received by a nearby iGate receiving site which forwards the packet on the Internet. Systems connected to the Internet can send information on the APRS-IS without a radio transmitter, or collect and display information transmitted anywhere in the world.
User guide · FAQ · Blog · Discussion group · Linking to aprs.fi · AIS sites · Service status · Database statistics · Advertising on aprs.fi · Technical details · API · Change log · Planned changes · Credits and thanks · Terms Of Service · iPhone/iPad APRS